createdAt,value
2023-11-24T00:06:03.334Z,101268.84
2023-11-24T00:16:04.772Z,101272.38
2023-11-24T00:26:06.144Z,101275.84
2023-11-24T00:36:07.581Z,101281.91
2023-11-24T00:46:08.922Z,101262.09
2023-11-24T00:56:10.446Z,101299.38
2023-11-24T01:06:11.750Z,101312.44
2023-11-24T01:16:13.048Z,101303.69
2023-11-24T01:26:14.326Z,101284.56
2023-11-24T01:36:15.616Z,101269.16
2023-11-24T01:46:17.112Z,101268.03
2023-11-24T01:56:18.461Z,101281.06
2023-11-24T02:06:19.729Z,101281.44
2023-11-24T02:16:21.153Z,101275.25
2023-11-24T02:26:22.503Z,101268.84
2023-11-24T02:36:23.784Z,101265.97
2023-11-24T02:46:25.161Z,101275.41
2023-11-24T02:56:26.480Z,101239.47
2023-11-24T03:06:27.813Z,101195.91
2023-11-24T03:16:29.226Z,101175.63
2023-11-24T03:26:30.513Z,101153.69
2023-11-24T03:36:31.826Z,101157.19
2023-11-24T03:46:33.192Z,101172.78
2023-11-24T03:56:34.552Z,101157.91
2023-11-24T04:06:35.944Z,101148.22
2023-11-24T04:16:37.396Z,101159.38
2023-11-24T04:26:38.727Z,101145.41
2023-11-24T04:36:40.123Z,101139.13
2023-11-24T04:46:41.501Z,101117.38
2023-11-24T04:56:42.849Z,101097.03
2023-11-24T05:06:44.161Z,101111.72
2023-11-24T05:16:45.542Z,101112.59
2023-11-24T05:26:48.690Z,101092.47
2023-11-24T05:36:51.245Z,101092.53
2023-11-24T05:46:52.879Z,101073.81
2023-11-24T05:56:54.222Z,101067.59
2023-11-24T06:06:59.167Z,101072.69
2023-11-24T06:17:00.873Z,101060.50
2023-11-24T06:27:02.217Z,101095.09
2023-11-24T06:37:03.497Z,101084.63
2023-11-24T06:47:04.868Z,101062.06
2023-11-24T06:57:06.198Z,101091.00
2023-11-24T07:07:07.529Z,101092.47
2023-11-24T07:17:08.852Z,101066.50
2023-11-24T07:27:10.173Z,101041.28
2023-11-24T07:37:11.489Z,101048.91
2023-11-24T07:47:12.771Z,101054.97
2023-11-24T07:57:14.064Z,101094.88
2023-11-24T08:07:15.448Z,101087.66
2023-11-24T08:17:16.789Z,101059.78
2023-11-24T08:27:18.082Z,101029.94
2023-11-24T08:37:19.447Z,101043.91
2023-11-24T08:47:20.785Z,101066.53
2023-11-24T08:57:22.099Z,101031.94
2023-11-24T09:07:23.417Z,101000.59
2023-11-24T09:17:24.734Z,100997.94
2023-11-24T09:27:25.986Z,100997.38
2023-11-24T09:37:30.686Z,101001.72
2023-11-24T09:47:40.578Z,100999.16
2023-11-24T09:57:48.697Z,101000.00
2023-11-24T10:07:57.806Z,100998.72
2023-11-24T10:18:05.772Z,101008.56
2023-11-24T10:28:13.642Z,101005.56
2023-11-24T10:38:21.407Z,100999.41
2023-11-24T10:48:28.701Z,100987.91
2023-11-24T10:58:34.516Z,100961.44
2023-11-24T11:08:41.258Z,100940.13
2023-11-24T11:18:52.731Z,100989.38
2023-11-24T11:29:01.690Z,100938.59
2023-11-24T11:39:09.704Z,100935.75
2023-11-24T11:49:18.631Z,100939.94
2023-11-24T11:59:26.607Z,100936.53
2023-11-24T12:09:28.272Z,100912.56
2023-11-24T12:19:29.929Z,100910.22
2023-11-24T12:29:31.251Z,100899.38
2023-11-24T12:39:32.549Z,100879.56
2023-11-24T12:49:34.947Z,100869.28
2023-11-24T12:59:36.258Z,100884.13
2023-11-24T13:09:37.515Z,100877.16
2023-11-24T13:19:38.771Z,100849.31
2023-11-24T13:29:40.068Z,100853.59
2023-11-24T13:39:41.339Z,100831.84
2023-11-24T13:49:43.378Z,100814.81
2023-11-24T13:59:45.126Z,100837.47
2023-11-24T14:10:08.938Z,100846.19
2023-11-24T14:20:17.574Z,100846.41
2023-11-24T14:30:19.446Z,100834.97
2023-11-24T14:50:49.474Z,100830.28
2023-11-24T15:00:50.842Z,100870.28
2023-11-24T15:10:52.168Z,100858.66
2023-11-24T15:20:53.521Z,100848.91
2023-11-24T15:30:54.895Z,100853.22
2023-11-24T15:40:56.310Z,100858.66
2023-11-24T15:50:57.623Z,100884.16
2023-11-24T16:00:58.971Z,100868.47
2023-11-24T16:11:00.366Z,100839.03
2023-11-24T16:21:01.711Z,100862.59
2023-11-24T16:31:02.995Z,100878.06
2023-11-24T16:41:04.390Z,100881.63
2023-11-24T16:51:05.716Z,100879.97
2023-11-24T17:01:07.046Z,100877.03
2023-11-24T17:11:08.367Z,100894.84
2023-11-24T17:21:09.710Z,100882.38
2023-11-24T17:31:11.116Z,100883.81
2023-11-24T17:41:12.433Z,100854.19
2023-11-24T17:51:13.701Z,100864.78
2023-11-24T18:01:15.063Z,100871.78
2023-11-24T18:11:16.405Z,100870.13
2023-11-24T18:21:17.697Z,100877.97
2023-11-24T18:31:19.131Z,100852.34
2023-11-24T18:41:20.615Z,100855.50
2023-11-24T18:51:21.947Z,100855.44
2023-11-24T19:01:23.337Z,100857.16
2023-11-24T19:11:24.677Z,100855.56
2023-11-24T19:21:25.974Z,100855.56
2023-11-24T19:31:27.329Z,100863.34
2023-11-24T19:41:28.826Z,100871.94
2023-11-24T19:51:30.172Z,100872.09
2023-11-24T20:01:31.646Z,100878.38
2023-11-24T20:11:33.083Z,100906.16
2023-11-24T20:21:34.409Z,100905.31
2023-11-24T20:31:35.766Z,100906.38
2023-11-24T20:41:37.150Z,100921.97
2023-11-24T20:51:38.488Z,100921.13
2023-11-24T21:01:39.869Z,100927.31
2023-11-24T21:11:42.306Z,100947.38
2023-11-24T21:21:43.989Z,100950.88
2023-11-24T21:31:45.460Z,100954.44
2023-11-24T21:41:46.886Z,100963.28
2023-11-24T21:51:48.180Z,100967.00
2023-11-24T22:01:49.670Z,100987.09
2023-11-24T22:11:51.061Z,101002.94
2023-11-24T22:21:52.330Z,101016.75
2023-11-24T22:31:53.668Z,101021.22
2023-11-24T22:41:54.954Z,101036.94
2023-11-24T22:51:56.422Z,101053.47
2023-11-24T23:01:57.901Z,101056.22
2023-11-24T23:11:59.350Z,101060.44
2023-11-24T23:22:00.729Z,101069.13
2023-11-24T23:32:02.185Z,101078.81
2023-11-24T23:42:03.489Z,101072.69
2023-11-24T23:52:04.844Z,101086.63
